Terminal Aerodrome Forecast
Issued by NWS

Current Version | Previous Version | Graphics & Text | Print | Product List | Glossary Off
Versions: 1 2 3 4 5 6 7 8 9 10 11 12 13 14 15 16 17 18 19 20 21 22 23 24

000
FTUS42 KILM 310600 CCA
TAFCRE
TAF COR
KCRE 310600Z 3106/3124 03006KT P6SM SCT040 BKN100
     FM311400 01012KT P6SM SCT025 BKN040
     FM311900 36006KT P6SM SCT040=

USA.gov is the U.S. government's official web portal to all federal, state and local government web resources and services.